| time (UTC) | temp C | wind direction | speed KPH | gust KPH | rain 1hr cm | rain 24hr cm | rain mn cm | humidity % | barometer mb |
| 20260503173342 | 18 | 276 | 1.6 | 9.7 | 0.00 | 0.03 | 0.00 | 40 | 1018.2 |
| 20260503171821 | 18 | 234 | 0.0 | 8.0 | 0.00 | 0.03 | 0.00 | 39 | 1018.4 |
| 20260503170337 | 18 | 241 | 0.0 | 8.0 | 0.00 | 0.03 | 0.00 | 39 | 1018.5 |
| 20260503150331 | 16 | 49 | 1.6 | 6.4 | 0.00 | 0.13 | 0.00 | 45 | 1019.6 |
| 20260503130315 | 12 | 14 | 1.6 | 8.0 | 0.00 | 0.38 | 0.00 | 64 | 1018.9 |
| 20260503110329 | 8 | 265 | 1.6 | 4.8 | 0.00 | 0.53 | 0.00 | 83 | 1017.9 |
| 20260503090313 | 8 | 124 | 0.0 | 0.0 | 0.00 | 0.79 | 0.00 | 89 | 1016.2 |
| 20260503080331 | 9 | 124 | 0.0 | 0.0 | 0.00 | 0.91 | 0.00 | 88 | 1015.8 |
| 20260503071831 | 10 | 124 | 0.0 | 0.0 | 0.00 | 0.97 | 0.00 | 87 | 1015.4 |
| 20260503070328 | 10 | 124 | 0.0 | 0.0 | 0.00 | 0.97 | 0.00 | 88 | 1015.3 |
| 20260503060323 | 10 | 124 | 0.0 | 0.0 | 0.00 | 0.97 | 0.00 | 86 | 1015.0 |
| 20260503054840 | 10 | 124 | 0.0 | 0.0 | 0.00 | 0.97 | 0.00 | 85 | 1015.0 |
| 20260503053319 | 11 | 124 | 0.0 | 0.0 | 0.00 | 0.97 | 0.00 | 85 | 1014.8 |
| 20260503051816 | 11 | 124 | 0.0 | 0.0 | 0.00 | 0.97 | 0.00 | 85 | 1014.8 |
| 20260503050331 | 11 | 124 | 0.0 | 0.0 | 0.00 | 0.97 | 0.00 | 85 | 1014.8 |
| 20260503044814 | 11 | 124 | 0.0 | 0.0 | 0.00 | 0.97 | 0.00 | 84 | 1014.9 |
| 20260503043351 | 11 | 124 | 0.0 | 0.0 | 0.00 | 0.97 | 0.00 | 85 | 1014.8 |
| 20260503041813 | 11 | 124 | 0.0 | 0.0 | 0.00 | 0.97 | 0.00 | 85 | 1014.8 |
| 20260503040329 | 11 | 124 | 0.0 | 0.0 | 0.00 | 0.97 | 0.00 | 85 | 1014.7 |
| 20260503034830 | 11 | 124 | 0.0 | 0.0 | 0.00 | 0.97 | 0.97 | 85 | 1014.7 |
| 20260503033326 | 11 | 124 | 0.0 | 0.0 | 0.00 | 0.97 | 0.97 | 86 | 1014.6 |
| 20260503031843 | 11 | 124 | 0.0 | 0.0 | 0.00 | 0.97 | 0.97 | 86 | 1014.5 |
| 20260503030324 | 11 | 124 | 0.0 | 0.0 | 0.00 | 0.97 | 0.97 | 85 | 1014.5 |
| 20260503024821 | 11 | 124 | 0.0 | 0.0 | 0.00 | 0.97 | 0.97 | 85 | 1014.0 |
| 20260503023322 | 11 | 124 | 0.0 | 0.0 | 0.00 | 0.97 | 0.97 | 83 | 1013.6 |
| 20260503021818 | 11 | 124 | 0.0 | 0.0 | 0.00 | 0.97 | 0.97 | 85 | 1013.4 |
| 20260503020318 | 11 | 124 | 0.0 | 0.0 | 0.00 | 0.97 | 0.97 | 85 | 1013.2 |
| 20260503014815 | 11 | 124 | 0.0 | 0.0 | 0.00 | 0.97 | 0.97 | 85 | 1013.2 |
| 20260503013315 | 11 | 124 | 0.0 | 0.0 | 0.00 | 0.97 | 0.97 | 85 | 1012.8 |
| 20260503011813 | 11 | 124 | 0.0 | 0.0 | 0.00 | 0.97 | 0.97 | 84 | 1012.7 |
| 20260503010348 | 11 | 124 | 0.0 | 0.0 | 0.00 | 0.97 | 0.97 | 83 | 1012.3 |
| 20260503004848 | 11 | 124 | 0.0 | 0.0 | 0.00 | 0.97 | 0.97 | 83 | 1012.3 |
| 20260503003323 | 11 | 124 | 0.0 | 0.0 | 0.00 | 0.97 | 0.97 | 82 | 1012.1 |
| 20260503001823 | 12 | 124 | 0.0 | 0.0 | 0.00 | 0.97 | 0.97 | 79 | 1012.0 |
| 20260503000319 | 12 | 219 | 0.0 | 0.0 | 0.00 | 0.97 | 0.97 | 77 | 1011.8 |
| 20260502234820 | 13 | 360 | 0.0 | 0.0 | 0.00 | 0.97 | 0.97 | 73 | 1011.6 |
| 20260502233317 | 13 | 360 | 0.0 | 0.0 | 0.00 | 0.97 | 0.97 | 70 | 1011.4 |
| 20260502231818 | 14 | 360 | 0.0 | 0.0 | 0.00 | 0.97 | 0.97 | 70 | 1011.3 |
| 20260502230315 | 13 | 353 | 0.0 | 0.0 | 0.00 | 0.97 | 0.97 | 70 | 1011.3 |
| 20260502224832 | 13 | 353 | 0.0 | 0.0 | 0.00 | 0.97 | 0.97 | 70 | 1011.2 |
| 20260502223315 | 13 | 353 | 0.0 | 1.6 | 0.00 | 0.97 | 0.97 | 69 | 1011.2 |
| 20260502221831 | 13 | 31 | 1.6 | 4.8 | 0.00 | 0.97 | 0.97 | 69 | 1011.2 |
| 20260502220314 | 13 | 360 | 3.2 | 9.7 | 0.00 | 0.97 | 0.97 | 69 | 1011.2 |
| 20260502214831 | 13 | 35 | 1.6 | 4.8 | 0.00 | 0.97 | 0.97 | 71 | 1011.2 |
| 20260502213352 | 13 | 5 | 0.0 | 6.4 | 0.00 | 0.97 | 0.97 | 70 | 1010.9 |
| 20260502211848 | 13 | 61 | 3.2 | 6.4 | 0.00 | 0.97 | 0.97 | 69 | 1010.8 |
| 20260502210324 | 13 | 39 | 1.6 | 8.0 | 0.00 | 0.97 | 0.97 | 71 | 1010.8 |
| 20260502204824 | 13 | 62 | 4.8 | 14.5 | 0.00 | 0.97 | 0.97 | 69 | 1010.9 |
| 20260502203321 | 13 | 49 | 3.2 | 12.9 | 0.00 | 0.97 | 0.97 | 70 | 1011.0 |
| 20260502201822 | 13 | 49 | 4.8 | 14.5 | 0.00 | 0.97 | 0.97 | 72 | 1011.0 |
| 20260502200318 | 13 | 5 | 9.7 | 24.1 | 0.00 | 0.97 | 0.97 | 69 | 1011.2 |
| 20260502194840 | 13 | 355 | 6.4 | 14.5 | 0.00 | 0.97 | 0.97 | 74 | 1011.6 |
| 20260502193315 | 13 | 14 | 6.4 | 9.7 | 0.00 | 0.97 | 0.97 | 74 | 1011.6 |
| 20260502191815 | 12 | 21 | 6.4 | 14.5 | 0.00 | 0.97 | 0.97 | 74 | 1011.7 |
| 20260502190314 | 12 | 5 | 8.0 | 14.5 | 0.00 | 0.97 | 0.97 | 76 | 1011.7 |
| 20260502184851 | 12 | 20 | 9.7 | 16.1 | 0.00 | 0.97 | 0.97 | 76 | 1011.6 |
| 20260502183313 | 12 | 350 | 9.7 | 16.1 | 0.00 | 0.97 | 0.97 | 76 | 1011.4 |
| 20260502181852 | 12 | 10 | 8.0 | 19.3 | 0.00 | 0.97 | 0.97 | 80 | 1011.7 |
| 20260502180332 | 12 | 29 | 6.4 | 9.7 | 0.03 | 0.97 | 0.97 | 82 | 1011.4 |